Time;durP1;ratioP1;P1;durP2;ratioP2;P2;SDS_P1;SDS_P2;PMS_P1;PMS_P2;Temp;Humidity;BMP_temperature;BMP_pressure;BME280_temperature;BME280_humidity;BME280_pressure;Samples;Min_cycle;Max_cycle;Signal;HPM_P1;HPM_P2
2022/08/09 00:01:33;;;;;;;1.33;0.70;;;18.50;81.80;;;;;;5040069;28;20035;-62
2022/08/09 00:03:59;;;;;;;2.47;0.70;;;18.40;82.00;;;;;;5053140;28;20412;-61
2022/08/09 00:06:27;;;;;;;1.30;0.50;;;18.40;82.20;;;;;;5053495;28;20068;-61
2022/08/09 00:08:53;;;;;;;1.58;0.60;;;18.40;82.20;;;;;;5034278;28;20016;-62
2022/08/09 00:11:20;;;;;;;1.08;0.50;;;18.40;82.20;;;;;;5047828;28;20029;-62
2022/08/09 00:13:46;;;;;;;2.35;0.70;;;18.40;82.30;;;;;;5044349;28;20469;-61
2022/08/09 00:16:12;;;;;;;2.35;0.93;;;18.30;82.50;;;;;;5041122;28;20026;-61
2022/08/09 00:18:38;;;;;;;1.83;0.70;;;18.20;82.70;;;;;;5043583;28;20031;-62
2022/08/09 00:21:05;;;;;;;1.52;0.80;;;18.20;83.00;;;;;;5039551;28;20029;-61
2022/08/09 00:23:31;;;;;;;1.65;0.77;;;18.20;83.30;;;;;;5050162;28;20071;-61
2022/08/09 00:25:56;;;;;;;1.85;0.90;;;18.10;83.30;;;;;;5036761;28;20037;-61
2022/08/09 00:28:22;;;;;;;1.80;0.80;;;18.10;83.40;;;;;;5049062;28;20056;-61
2022/08/09 00:30:49;;;;;;;2.47;0.93;;;18.00;83.50;;;;;;5039726;28;20025;-61
2022/08/09 00:33:15;;;;;;;2.78;0.90;;;18.00;83.70;;;;;;5053328;28;20028;-61
2022/08/09 00:35:41;;;;;;;1.73;0.80;;;17.90;83.80;;;;;;5052763;28;20009;-61
2022/08/09 00:38:08;;;;;;;1.65;0.90;;;17.90;84.00;;;;;;5053216;28;20526;-62
2022/08/09 00:40:34;;;;;;;1.95;1.23;;;17.90;84.00;;;;;;5053153;28;20040;-62
2022/08/09 00:42:59;;;;;;;2.22;0.80;;;17.90;84.30;;;;;;5052442;28;20029;-61
2022/08/09 00:45:25;;;;;;;2.08;0.93;;;17.80;84.40;;;;;;5039866;28;20524;-62
2022/08/09 00:47:51;;;;;;;3.78;1.10;;;17.80;84.60;;;;;;5051946;28;20093;-61
2022/08/09 00:50:16;;;;;;;2.15;0.82;;;17.70;84.80;;;;;;5051681;28;20033;-61
2022/08/09 00:52:42;;;;;;;1.42;0.85;;;17.70;85.00;;;;;;5052008;28;20037;-61
2022/08/09 00:55:09;;;;;;;2.08;0.90;;;17.70;85.20;;;;;;5052747;28;20044;-62
2022/08/09 00:57:34;;;;;;;4.28;0.88;;;17.60;85.30;;;;;;5034319;28;20427;-62
2022/08/09 01:00:00;;;;;;;1.58;1.20;;;17.60;85.50;;;;;;5052818;28;20025;-62
2022/08/09 01:02:29;;;;;;;3.15;0.80;;;17.60;85.70;;;;;;5052257;28;20037;-61
2022/08/09 01:05:08;;;;;;;2.47;1.00;;;17.60;85.90;;;;;;5052540;28;20396;-61
2022/08/09 01:07:53;;;;;;;2.58;0.90;;;17.50;86.60;;;;;;5051339;28;20597;-61
2022/08/09 01:10:43;;;;;;;2.78;1.10;;;17.50;86.20;;;;;;5034678;28;20037;-61
2022/08/09 01:13:22;;;;;;;4.13;0.93;;;17.50;86.50;;;;;;5036140;28;20014;-61
2022/08/09 01:15:51;;;;;;;2.00;0.70;;;17.40;86.70;;;;;;5032934;28;20028;-61
2022/08/09 01:18:21;;;;;;;2.40;1.00;;;17.40;86.80;;;;;;5033060;28;20017;-61
2022/08/09 01:21:11;;;;;;;2.72;1.08;;;17.30;86.90;;;;;;5033096;28;20470;-61
2022/08/09 01:23:49;;;;;;;2.45;0.82;;;17.30;87.10;;;;;;5033244;28;20037;-61
2022/08/09 01:26:54;;;;;;;1.95;0.90;;;17.30;87.30;;;;;;5032196;28;20021;-61
2022/08/09 01:29:34;;;;;;;1.95;1.20;;;17.20;87.40;;;;;;5049073;28;20112;-61
2022/08/09 01:32:03;;;;;;;1.60;0.80;;;17.20;88.30;;;;;;5046298;28;20116;-61
2022/08/09 01:34:31;;;;;;;1.45;0.90;;;17.10;87.90;;;;;;5049276;28;20052;-62
2022/08/09 01:36:59;;;;;;;1.27;0.82;;;17.10;88.00;;;;;;5047078;28;20021;-61
2022/08/09 01:39:27;;;;;;;1.80;1.08;;;17.10;88.10;;;;;;5049904;28;20079;-61
2022/08/09 01:41:54;;;;;;;1.75;0.93;;;17.10;88.10;;;;;;5046888;28;20033;-61
2022/08/09 01:44:21;;;;;;;1.75;0.90;;;17.00;88.30;;;;;;5052224;28;20028;-61
2022/08/09 01:46:48;;;;;;;1.33;1.00;;;17.00;88.60;;;;;;5046886;28;20072;-61
2022/08/09 01:49:16;;;;;;;3.28;1.15;;;17.00;88.70;;;;;;5048161;28;20025;-61
2022/08/09 01:51:47;;;;;;;1.80;1.02;;;17.00;88.90;;;;;;5048477;28;20473;-61
2022/08/09 01:54:14;;;;;;;2.75;0.93;;;16.90;89.00;;;;;;5050581;28;20048;-61
2022/08/09 01:56:43;;;;;;;1.88;0.98;;;16.90;89.20;;;;;;5047956;28;20021;-61
2022/08/09 01:59:14;;;;;;;3.15;1.30;;;16.90;89.30;;;;;;5050995;28;20157;-61
2022/08/09 02:01:42;;;;;;;4.03;1.50;;;16.80;89.50;;;;;;5050117;28;20040;-61
2022/08/09 02:04:09;;;;;;;1.73;1.13;;;16.70;90.00;;;;;;5051415;28;20037;-61
2022/08/09 02:07:25;;;;;;;2.97;1.33;;;16.70;90.20;;;;;;5050727;28;20451;-61
2022/08/09 02:09:24;;;;;;;2.33;1.23;;;16.70;90.30;;;;;;5037893;28;20078;-61
2022/08/09 02:11:52;;;;;;;3.67;1.27;;;16.70;90.40;;;;;;5038978;28;20017;-61
2022/08/09 02:14:20;;;;;;;2.13;1.42;;;16.70;90.60;;;;;;5051802;28;20358;-61
2022/08/09 02:16:46;;;;;;;2.72;1.10;;;16.60;90.60;;;;;;5051308;28;20017;-61
2022/08/09 02:19:12;;;;;;;3.28;1.50;;;16.60;90.70;;;;;;5050734;28;20025;-61
2022/08/09 02:21:42;;;;;;;3.60;1.17;;;16.60;90.90;;;;;;5052271;28;20040;-61
2022/08/09 02:24:13;;;;;;;2.90;1.40;;;16.60;90.90;;;;;;5046054;28;20029;-61
2022/08/09 02:26:39;;;;;;;4.32;1.35;;;16.60;91.00;;;;;;5033777;28;20032;-61
2022/08/09 02:29:27;;;;;;;2.05;1.17;;;16.60;91.10;;;;;;5045078;28;20025;-61
2022/08/09 02:31:59;;;;;;;4.63;1.23;;;16.60;91.10;;;;;;5039854;28;20453;-62
2022/08/09 02:34:30;;;;;;;4.50;1.55;;;16.60;91.30;;;;;;5047315;28;20108;-61
2022/08/09 02:36:59;;;;;;;3.42;1.70;;;16.50;91.50;;;;;;5045687;28;20121;-62
2022/08/09 02:39:33;;;;;;;3.45;1.65;;;16.50;91.60;;;;;;5034206;28;20021;-61
2022/08/09 02:42:02;;;;;;;4.57;2.08;;;16.40;91.70;;;;;;5031698;28;20040;-61
2022/08/09 02:44:35;;;;;;;3.15;1.60;;;16.40;91.80;;;;;;5054504;28;20020;-61
2022/08/09 02:47:07;;;;;;;2.42;1.70;;;16.40;91.80;;;;;;5054842;28;20040;-61
2022/08/09 02:49:37;;;;;;;3.28;1.70;;;16.40;92.00;;;;;;5055277;28;20116;-61
2022/08/09 02:52:04;;;;;;;3.63;1.80;;;16.30;92.10;;;;;;5046481;28;20030;-61
2022/08/09 02:54:31;;;;;;;2.35;1.55;;;16.30;92.20;;;;;;5034540;28;20441;-61
2022/08/09 02:57:00;;;;;;;4.57;1.80;;;16.30;92.30;;;;;;5033903;28;20032;-61
2022/08/09 02:59:26;;;;;;;3.20;1.70;;;16.30;92.30;;;;;;5055345;28;20027;-61
2022/08/09 03:01:53;;;;;;;5.10;2.38;;;16.30;92.40;;;;;;5036771;28;20025;-61
2022/08/09 03:04:20;;;;;;;3.85;1.50;;;16.30;92.50;;;;;;5054572;28;20037;-61
2022/08/09 03:06:47;;;;;;;4.03;1.88;;;16.30;92.60;;;;;;5054420;28;20017;-61
2022/08/09 03:09:13;;;;;;;4.30;2.10;;;16.20;92.60;;;;;;5054498;28;20036;-61
2022/08/09 03:11:41;;;;;;;3.17;1.65;;;16.20;92.70;;;;;;5054730;28;20025;-61
2022/08/09 03:14:07;;;;;;;3.25;1.80;;;16.20;92.80;;;;;;5034805;28;20017;-61
2022/08/09 03:16:34;;;;;;;3.28;1.70;;;16.20;92.80;;;;;;5034954;28;20473;-62
2022/08/09 03:19:00;;;;;;;4.13;1.95;;;16.20;92.90;;;;;;5033937;28;20043;-61
2022/08/09 03:21:27;;;;;;;4.88;1.80;;;16.20;93.00;;;;;;5035548;28;20030;-61
2022/08/09 03:23:52;;;;;;;4.07;2.00;;;16.10;93.10;;;;;;5054807;28;20059;-61
2022/08/09 03:26:20;;;;;;;2.72;1.60;;;16.10;93.40;;;;;;5034726;28;20038;-62
2022/08/09 03:28:50;;;;;;;3.47;1.70;;;16.10;93.20;;;;;;5021794;28;20482;-61
2022/08/09 03:31:17;;;;;;;4.25;2.95;;;16.10;93.20;;;;;;5037058;28;20030;-61
2022/08/09 03:33:44;;;;;;;3.10;1.90;;;16.00;93.30;;;;;;5035815;28;20025;-61
2022/08/09 03:36:10;;;;;;;1.88;1.55;;;16.00;93.30;;;;;;5036701;28;20096;-61
2022/08/09 03:38:40;;;;;;;4.32;1.85;;;16.00;93.30;;;;;;5039882;28;20018;-61
2022/08/09 03:41:06;;;;;;;4.05;1.80;;;16.00;93.40;;;;;;5045374;28;20048;-61
2022/08/09 03:43:32;;;;;;;2.55;1.80;;;16.00;93.80;;;;;;5021077;28;20528;-61
2022/08/09 03:45:57;;;;;;;4.90;1.58;;;15.90;93.60;;;;;;5036650;28;20037;-61
2022/08/09 03:48:24;;;;;;;4.10;2.15;;;15.90;93.90;;;;;;5038705;28;20023;-61
2022/08/09 03:50:52;;;;;;;3.42;1.73;;;15.90;94.00;;;;;;5036504;28;20433;-61
2022/08/09 03:53:19;;;;;;;3.90;1.92;;;15.90;93.70;;;;;;5038431;28;20013;-61
2022/08/09 03:55:45;;;;;;;3.13;2.22;;;15.80;93.80;;;;;;5036203;28;20104;-61
2022/08/09 03:58:11;;;;;;;5.05;1.95;;;15.80;93.90;;;;;;5050958;28;20032;-61
2022/08/09 04:00:38;;;;;;;3.05;1.90;;;15.80;93.90;;;;;;5034241;28;20025;-62
2022/08/09 04:03:05;;;;;;;2.50;1.75;;;15.80;94.00;;;;;;5034388;28;20045;-61
2022/08/09 04:05:31;;;;;;;2.25;1.85;;;15.80;94.00;;;;;;5053410;28;20044;-62
2022/08/09 04:07:56;;;;;;;3.83;2.15;;;15.80;94.00;;;;;;5033130;28;20108;-62
2022/08/09 04:10:23;;;;;;;2.72;1.70;;;15.80;94.10;;;;;;5035884;28;20489;-61
2022/08/09 04:12:50;;;;;;;2.38;1.90;;;15.80;94.10;;;;;;5035454;28;20108;-61
2022/08/09 04:15:18;;;;;;;2.58;1.92;;;15.80;94.20;;;;;;5053290;28;20021;-61
2022/08/09 04:17:44;;;;;;;2.80;1.85;;;15.70;94.20;;;;;;5052978;28;20029;-61
2022/08/09 04:20:11;;;;;;;2.40;2.08;;;15.70;94.30;;;;;;5053320;28;20036;-61
2022/08/09 04:22:37;;;;;;;5.00;2.60;;;15.70;94.30;;;;;;5052683;28;20040;-62
2022/08/09 04:25:21;;;;;;;4.20;2.20;;;15.60;94.40;;;;;;5053325;28;20488;-61
2022/08/09 04:27:46;;;;;;;4.13;2.13;;;15.60;94.40;;;;;;5053105;28;20047;-61
2022/08/09 04:30:21;;;;;;;3.35;2.42;;;15.60;94.50;;;;;;5038710;28;20101;-61
2022/08/09 04:32:51;;;;;;;2.60;1.95;;;15.60;94.50;;;;;;5033530;28;20074;-61
2022/08/09 04:35:17;;;;;;;3.60;2.28;;;15.60;94.60;;;;;;5033103;28;20128;-61
2022/08/09 04:37:43;;;;;;;4.13;2.17;;;15.60;94.60;;;;;;5033323;28;20029;-61
2022/08/09 04:40:10;;;;;;;4.30;2.38;;;15.60;94.60;;;;;;5033552;28;20024;-61
2022/08/09 04:42:36;;;;;;;4.78;2.15;;;15.60;94.70;;;;;;5033704;28;20071;-61
2022/08/09 04:45:03;;;;;;;5.20;2.10;;;15.60;94.80;;;;;;5046344;28;20025;-61
2022/08/09 04:47:30;;;;;;;5.03;2.47;;;15.60;94.80;;;;;;5033430;28;20124;-61
2022/08/09 04:49:55;;;;;;;5.10;2.25;;;15.60;94.80;;;;;;5033044;28;20500;-61
2022/08/09 04:52:26;;;;;;;4.25;2.08;;;15.60;94.90;;;;;;5032880;28;20029;-61
2022/08/09 04:54:51;;;;;;;3.80;2.08;;;15.50;94.90;;;;;;5033410;28;20095;-61
2022/08/09 04:57:17;;;;;;;4.43;2.22;;;15.60;95.00;;;;;;5044879;28;20477;-61
2022/08/09 04:59:43;;;;;;;3.67;2.20;;;15.50;95.00;;;;;;5052174;28;20025;-61
2022/08/09 05:02:09;;;;;;;4.45;2.15;;;15.60;95.00;;;;;;5052752;28;20032;-61
2022/08/09 05:04:35;;;;;;;3.47;2.30;;;15.60;95.10;;;;;;5052094;28;20474;-61
2022/08/09 05:07:00;;;;;;;3.42;2.40;;;15.60;95.10;;;;;;5052285;28;20025;-61
2022/08/09 05:09:29;;;;;;;3.33;2.33;;;15.60;95.10;;;;;;5051977;28;20508;-61
2022/08/09 05:11:54;;;;;;;2.50;2.20;;;15.60;95.10;;;;;;5052026;28;20020;-60
2022/08/09 05:14:20;;;;;;;4.20;3.10;;;15.60;95.20;;;;;;5050932;28;20017;-61
2022/08/09 05:16:46;;;;;;;4.32;2.70;;;15.60;95.30;;;;;;5043396;28;20029;-60
2022/08/09 05:19:13;;;;;;;4.45;3.10;;;15.60;95.40;;;;;;5031110;28;20018;-61
2022/08/09 05:21:39;;;;;;;5.75;3.47;;;15.60;95.50;;;;;;5032890;28;20069;-61
2022/08/09 05:24:05;;;;;;;5.07;3.47;;;15.60;95.60;;;;;;5045642;28;20033;-61
2022/08/09 05:26:31;;;;;;;3.17;2.88;;;15.60;95.70;;;;;;5032721;28;20025;-61
2022/08/09 05:28:57;;;;;;;5.35;3.42;;;15.60;95.80;;;;;;5049660;28;20487;-61
2022/08/09 05:31:22;;;;;;;4.07;2.95;;;15.60;95.90;;;;;;5040327;28;20065;-61
2022/08/09 05:33:48;;;;;;;3.60;3.05;;;15.70;95.90;;;;;;5032704;28;20021;-61
2022/08/09 05:36:14;;;;;;;5.25;3.15;;;15.70;96.00;;;;;;5032489;28;20535;-61
2022/08/09 05:38:39;;;;;;;3.97;3.38;;;15.70;96.00;;;;;;5032566;28;20021;-61
2022/08/09 05:41:05;;;;;;;4.53;3.45;;;15.80;96.10;;;;;;5032898;28;20384;-61
2022/08/09 05:43:34;;;;;;;4.65;3.42;;;15.80;96.20;;;;;;5036618;28;20566;-61
2022/08/09 05:46:00;;;;;;;4.40;4.00;;;15.90;96.20;;;;;;5039438;28;20101;-61
2022/08/09 05:48:26;;;;;;;4.60;3.80;;;15.90;96.30;;;;;;5030313;28;20029;-61
2022/08/09 05:50:51;;;;;;;5.10;4.47;;;15.90;96.40;;;;;;5039219;28;20525;-61
2022/08/09 05:53:17;;;;;;;4.53;3.83;;;15.90;96.50;;;;;;5041238;28;20116;-61
2022/08/09 05:55:42;;;;;;;7.28;3.92;;;15.90;96.60;;;;;;5050591;28;20017;-61
2022/08/09 05:58:08;;;;;;;6.15;4.38;;;16.00;96.70;;;;;;5049027;28;20440;-61
2022/08/09 06:00:33;;;;;;;6.25;4.05;;;16.00;96.80;;;;;;5048026;28;20512;-61
2022/08/09 06:03:01;;;;;;;4.90;3.88;;;16.00;96.90;;;;;;5047841;28;20033;-61
2022/08/09 06:05:29;;;;;;;6.45;4.57;;;16.10;97.00;;;;;;5049830;28;20124;-61
2022/08/09 06:07:54;;;;;;;5.38;4.63;;;16.10;97.10;;;;;;5047266;28;20028;-61
2022/08/09 06:10:36;;;;;;;7.82;5.97;;;16.20;97.20;;;;;;5029978;28;20029;-61
2022/08/09 06:13:03;;;;;;;7.63;5.53;;;16.20;97.50;;;;;;5060510;28;20057;-61
2022/08/09 06:15:28;;;;;;;6.78;5.15;;;16.20;97.70;;;;;;5062052;28;20025;-61
2022/08/09 06:17:54;;;;;;;6.80;4.97;;;16.30;97.80;;;;;;5057385;28;20024;-61
2022/08/09 06:20:19;;;;;;;8.35;5.10;;;16.30;97.80;;;;;;5064082;28;20074;-60
2022/08/09 06:22:45;;;;;;;8.50;5.63;;;16.40;97.90;;;;;;5062896;28;20574;-61
2022/08/09 06:25:10;;;;;;;9.52;6.88;;;16.40;98.10;;;;;;5059609;28;20029;-61
2022/08/09 06:27:36;;;;;;;6.55;4.55;;;16.40;98.30;;;;;;5065218;28;20165;-61
2022/08/09 06:30:02;;;;;;;7.82;5.22;;;16.50;98.40;;;;;;5059872;28;20534;-61
2022/08/09 06:32:27;;;;;;;11.20;6.03;;;16.50;98.50;;;;;;5066373;28;20029;-61
2022/08/09 06:34:53;;;;;;;8.50;6.95;;;16.60;98.70;;;;;;5056673;28;20042;-61
2022/08/09 06:37:18;;;;;;;7.45;5.80;;;16.60;98.90;;;;;;5064783;28;20123;-61
2022/08/09 06:39:44;;;;;;;7.15;5.50;;;16.70;99.00;;;;;;5062190;28;20029;-61
2022/08/09 06:42:09;;;;;;;9.40;5.60;;;16.80;99.10;;;;;;5063646;28;20025;-61
2022/08/09 06:44:35;;;;;;;8.57;5.13;;;16.80;99.10;;;;;;5055488;28;20543;-61
2022/08/09 06:47:01;;;;;;;6.43;4.70;;;16.90;99.10;;;;;;5063196;28;20056;-61
2022/08/09 06:49:26;;;;;;;7.22;5.15;;;16.90;99.00;;;;;;5062552;28;20427;-61
2022/08/09 06:51:52;;;;;;;9.45;4.68;;;17.00;99.00;;;;;;5062533;28;20528;-61
2022/08/09 06:54:18;;;;;;;6.03;4.75;;;17.10;99.00;;;;;;5060785;28;20017;-61
2022/08/09 06:56:44;;;;;;;6.43;4.57;;;17.10;98.90;;;;;;5063664;28;20024;-61
2022/08/09 06:59:09;;;;;;;8.07;5.15;;;17.20;98.90;;;;;;5062752;28;20050;-61
2022/08/09 07:01:35;;;;;;;6.43;4.38;;;17.30;98.90;;;;;;5061248;28;20067;-61
2022/08/09 07:04:00;;;;;;;5.95;4.10;;;17.30;98.80;;;;;;5061217;28;20103;-61
2022/08/09 07:06:26;;;;;;;3.80;2.97;;;17.40;98.70;;;;;;5063631;28;20052;-61
2022/08/09 07:08:51;;;;;;;5.82;3.53;;;17.50;98.70;;;;;;5058978;28;20057;-61
2022/08/09 07:11:17;;;;;;;6.40;3.85;;;17.50;98.60;;;;;;5052933;28;20029;-61
2022/08/09 07:13:42;;;;;;;5.07;3.42;;;17.60;98.50;;;;;;5062346;28;20028;-61
2022/08/09 07:16:08;;;;;;;4.90;3.90;;;17.70;98.40;;;;;;5056761;28;20568;-61
2022/08/09 07:18:34;;;;;;;5.13;3.67;;;17.70;98.30;;;;;;5051628;28;20032;-61
2022/08/09 07:20:59;;;;;;;5.07;3.22;;;17.90;98.20;;;;;;5059344;28;20029;-61
2022/08/09 07:23:25;;;;;;;5.25;3.00;;;17.90;98.00;;;;;;5058734;28;20362;-61
2022/08/09 07:25:50;;;;;;;6.28;3.53;;;18.00;97.90;;;;;;5063028;28;20391;-61
2022/08/09 07:28:21;;;;;;;7.03;3.47;;;18.00;97.80;;;;;;5064003;28;20025;-61
2022/08/09 07:30:49;;;;;;;5.22;3.53;;;18.10;97.60;;;;;;5032007;28;20253;-61
2022/08/09 07:33:14;;;;;;;3.25;2.50;;;18.20;97.50;;;;;;5059708;28;20502;-61
2022/08/09 07:35:40;;;;;;;3.15;2.20;;;18.30;97.30;;;;;;5054597;28;20025;-61
2022/08/09 07:38:05;;;;;;;4.13;2.90;;;18.40;97.20;;;;;;5058929;28;20028;-61
2022/08/09 07:40:31;;;;;;;5.15;2.67;;;18.40;97.10;;;;;;5043035;28;20017;-61
2022/08/09 07:42:58;;;;;;;3.35;2.45;;;18.50;96.90;;;;;;5059019;28;20493;-61
2022/08/09 07:45:26;;;;;;;3.60;2.20;;;18.60;96.80;;;;;;5063784;28;20119;-61
2022/08/09 07:47:53;;;;;;;3.70;2.15;;;18.70;96.60;;;;;;5064140;28;20013;-61
2022/08/09 07:50:21;;;;;;;4.53;3.00;;;18.80;96.40;;;;;;5059042;28;20035;-61
2022/08/09 07:52:48;;;;;;;4.22;2.22;;;18.90;96.20;;;;;;5067983;28;20016;-61
2022/08/09 07:55:14;;;;;;;2.05;1.70;;;19.00;96.00;;;;;;5059287;28;20067;-61
2022/08/09 07:57:39;;;;;;;2.65;1.50;;;19.10;95.80;;;;;;5059157;28;20025;-61
2022/08/09 08:00:06;;;;;;;5.05;1.50;;;19.10;95.70;;;;;;5042089;28;20044;-61
2022/08/09 08:02:31;;;;;;;2.50;1.80;;;19.30;95.40;;;;;;5034707;28;20051;-61
2022/08/09 08:04:57;;;;;;;2.95;1.70;;;19.30;95.00;;;;;;5055163;28;20970;-61
2022/08/09 08:07:22;;;;;;;4.60;1.48;;;19.30;94.50;;;;;;5062149;28;20473;-61
2022/08/09 08:09:48;;;;;;;3.47;1.42;;;19.40;94.20;;;;;;5056966;28;20033;-62
2022/08/09 08:12:13;;;;;;;3.10;1.50;;;19.50;94.10;;;;;;5062260;28;20437;-62
2022/08/09 08:14:39;;;;;;;4.38;1.60;;;19.60;93.90;;;;;;5032838;28;20025;-61
2022/08/09 08:17:04;;;;;;;1.88;1.00;;;19.60;93.70;;;;;;5062873;28;20039;-61
2022/08/09 08:19:30;;;;;;;1.92;1.05;;;19.70;93.70;;;;;;5060252;28;20469;-61
2022/08/09 08:21:56;;;;;;;3.17;1.10;;;19.90;93.40;;;;;;5059891;28;20039;-62
2022/08/09 08:24:32;;;;;;;1.95;0.88;;;20.00;93.20;;;;;;5059496;28;20017;-61
2022/08/09 08:26:57;;;;;;;1.40;1.00;;;20.00;92.90;;;;;;5051544;28;20041;-61
2022/08/09 08:29:24;;;;;;;1.20;0.88;;;20.10;92.70;;;;;;5038154;28;20307;-61
2022/08/09 08:31:49;;;;;;;2.60;1.13;;;20.20;92.30;;;;;;5056756;28;20477;-61
2022/08/09 08:34:15;;;;;;;2.15;0.90;;;20.30;92.00;;;;;;5054821;28;20024;-61
2022/08/09 08:36:41;;;;;;;1.27;0.70;;;20.40;91.70;;;;;;5054767;28;20025;-61
2022/08/09 08:39:06;;;;;;;1.92;0.88;;;20.50;91.40;;;;;;5057737;28;20031;-62
2022/08/09 08:41:36;;;;;;;2.85;1.08;;;20.60;91.10;;;;;;5058334;28;20020;-61
2022/08/09 08:44:02;;;;;;;3.95;0.70;;;20.70;90.80;;;;;;5062473;28;20028;-61
2022/08/09 08:46:33;;;;;;;3.08;0.60;;;20.70;90.60;;;;;;5057633;28;20354;-62
2022/08/09 08:49:00;;;;;;;1.45;0.57;;;20.80;90.40;;;;;;5036396;28;20017;-61
2022/08/09 08:51:46;;;;;;;1.65;0.65;;;21.00;90.20;;;;;;5039937;28;20020;-61
2022/08/09 08:54:13;;;;;;;3.38;0.70;;;21.10;89.30;;;;;;5040950;28;20028;-62
2022/08/09 08:56:39;;;;;;;1.25;0.60;;;21.10;88.50;;;;;;5038714;28;20530;-62
2022/08/09 08:59:07;;;;;;;1.67;0.50;;;21.20;86.20;;;;;;5055753;28;20396;-61
2022/08/09 09:01:35;;;;;;;0.73;0.40;;;21.30;85.40;;;;;;5060705;28;20020;-61
2022/08/09 09:04:06;;;;;;;0.65;0.35;;;21.40;84.40;;;;;;5052458;28;20048;-61
2022/08/09 09:06:36;;;;;;;1.70;0.52;;;21.40;82.90;;;;;;5050643;28;20492;-62
2022/08/09 09:09:04;;;;;;;1.33;0.50;;;21.50;81.80;;;;;;5052335;28;20029;-61
2022/08/09 09:11:30;;;;;;;1.10;0.30;;;21.50;81.70;;;;;;5052336;28;20098;-61
2022/08/09 09:13:59;;;;;;;1.48;0.43;;;21.60;81.90;;;;;;5060095;28;20462;-62
2022/08/09 09:16:27;;;;;;;0.77;0.47;;;21.70;80.80;;;;;;5057720;28;20021;-61
2022/08/09 09:18:53;;;;;;;1.00;0.38;;;21.80;79.60;;;;;;5061450;28;20025;-62
2022/08/09 09:21:19;;;;;;;0.82;0.40;;;21.90;79.20;;;;;;5042872;28;20538;-61
2022/08/09 09:23:45;;;;;;;2.05;0.40;;;21.90;78.80;;;;;;5042770;28;20100;-61
2022/08/09 09:26:12;;;;;;;2.05;0.40;;;22.00;77.50;;;;;;5036176;28;20112;-62
2022/08/09 09:28:43;;;;;;;1.20;0.50;;;22.10;76.60;;;;;;5047076;28;20127;-61
2022/08/09 09:31:13;;;;;;;1.33;0.40;;;22.20;75.80;;;;;;5032749;28;20040;-62
2022/08/09 09:33:39;;;;;;;0.80;0.30;;;22.30;73.80;;;;;;5048471;28;20025;-61
2022/08/09 09:36:07;;;;;;;0.50;0.40;;;22.30;73.00;;;;;;5059401;28;20066;-61
2022/08/09 09:38:51;;;;;;;2.77;0.50;;;22.40;72.30;;;;;;5063555;28;20025;-61
2022/08/09 09:41:30;;;;;;;0.82;0.30;;;22.40;71.90;;;;;;5058516;28;20021;-61
2022/08/09 09:44:00;;;;;;;0.85;0.40;;;22.50;72.00;;;;;;5059800;28;20021;-62
2022/08/09 09:46:31;;;;;;;0.55;0.30;;;22.50;71.10;;;;;;5049825;28;20021;-61
2022/08/09 09:49:06;;;;;;;2.55;0.30;;;22.60;69.30;;;;;;5042306;28;20025;-61
2022/08/09 09:51:34;;;;;;;0.90;0.32;;;22.60;68.10;;;;;;5055394;28;20040;-62
2022/08/09 09:54:18;;;;;;;0.90;0.30;;;22.70;68.30;;;;;;5063003;28;20017;-62
2022/08/09 09:56:46;;;;;;;0.93;0.30;;;22.80;67.70;;;;;;5060963;28;21083;-61
2022/08/09 09:59:19;;;;;;;0.60;0.40;;;22.80;67.40;;;;;;5058069;28;20012;-61
2022/08/09 10:01:45;;;;;;;1.20;0.60;;;22.90;67.60;;;;;;5063066;28;20117;-62
2022/08/09 10:04:15;;;;;;;0.75;0.40;;;23.00;67.60;;;;;;5050452;28;21205;-62
2022/08/09 10:06:44;;;;;;;0.90;0.30;;;23.00;66.70;;;;;;5004100;28;20483;-62
2022/08/09 10:12:30;;;;;;;0.75;0.30;;;23.10;65.30;;;;;;5028090;28;20069;-61
2022/08/09 10:15:11;;;;;;;2.08;0.40;;;23.20;65.90;;;;;;5014733;28;20022;-62
2022/08/09 10:17:38;;;;;;;1.00;0.20;;;23.30;65.70;;;;;;5011239;28;20105;-62
2022/08/09 10:20:22;;;;;;;1.42;0.52;;;23.30;65.40;;;;;;5017373;28;20021;-61
2022/08/09 10:22:50;;;;;;;1.65;0.60;;;23.40;65.20;;;;;;5020132;28;20018;-62
2022/08/09 10:25:15;;;;;;;1.13;0.40;;;23.40;65.20;;;;;;5014368;28;20022;-61
2022/08/09 10:27:43;;;;;;;1.77;0.40;;;23.60;65.30;;;;;;5020904;28;20406;-62
2022/08/09 10:30:09;;;;;;;1.27;0.60;;;23.60;64.30;;;;;;5014269;28;20025;-61
2022/08/09 10:32:35;;;;;;;0.75;0.30;;;23.70;63.00;;;;;;5020759;28;20509;-61
2022/08/09 10:35:02;;;;;;;1.02;0.73;;;23.80;62.60;;;;;;5022463;28;20033;-62
2022/08/09 10:37:28;;;;;;;0.73;0.35;;;23.90;62.90;;;;;;5018079;28;20092;-62
2022/08/09 10:39:54;;;;;;;0.68;0.30;;;24.00;63.10;;;;;;5010152;28;20474;-62
2022/08/09 10:42:21;;;;;;;1.50;0.30;;;24.10;62.70;;;;;;5011200;28;20026;-61
2022/08/09 10:44:58;;;;;;;0.30;0.20;;;24.20;62.10;;;;;;5018959;28;20058;-62
2022/08/09 10:47:35;;;;;;;0.73;0.20;;;24.30;62.70;;;;;;5013137;28;20030;-62
2022/08/09 10:50:21;;;;;;;2.25;0.52;;;24.40;62.20;;;;;;5012478;28;20076;-62
2022/08/09 10:53:42;;;;;;;0.95;0.32;;;24.50;60.80;;;;;;5022178;28;20151;-61
2022/08/09 10:56:24;;;;;;;1.13;0.30;;;24.60;60.70;;;;;;4988649;28;20543;-62
2022/08/09 10:58:51;;;;;;;1.27;0.40;;;24.70;59.80;;;;;;4990686;28;20026;-62
2022/08/09 11:01:32;;;;;;;1.02;0.40;;;24.80;59.10;;;;;;5017299;28;20382;-61
2022/08/09 11:04:22;;;;;;;1.23;0.40;;;24.90;59.10;;;;;;5022165;28;20025;-62
2022/08/09 11:07:02;;;;;;;1.45;0.40;;;25.00;59.10;;;;;;5055371;28;21191;-62
2022/08/09 11:09:37;;;;;;;0.90;0.30;;;25.20;59.10;;;;;;5030686;28;20060;-62
2022/08/09 11:12:23;;;;;;;1.02;0.43;;;25.30;58.60;;;;;;5050358;28;20481;-62
2022/08/09 11:18:04;;;;;;;2.03;0.30;;;25.60;58.40;;;;;;5028123;28;20029;-62
2022/08/09 11:20:58;;;;;;;1.95;0.40;;;25.70;58.20;;;;;;5061814;28;20143;-62
2022/08/09 11:23:24;;;;;;;0.90;0.20;;;25.90;57.60;;;;;;5035918;28;20031;-62
2022/08/09 11:25:49;;;;;;;0.50;0.30;;;26.00;57.30;;;;;;5047678;28;20018;-62
2022/08/09 11:28:32;;;;;;;1.40;0.30;;;26.20;57.10;;;;;;5034456;28;20029;-62
2022/08/09 11:30:58;;;;;;;1.33;0.30;;;26.40;56.00;;;;;;5041927;28;20028;-62
2022/08/09 11:33:36;;;;;;;0.73;0.30;;;26.60;55.10;;;;;;5040023;28;20033;-62
2022/08/09 11:36:01;;;;;;;1.63;0.30;;;26.70;55.20;;;;;;5043732;28;20017;-62
2022/08/09 11:38:35;;;;;;;0.85;0.30;;;26.90;55.00;;;;;;5054090;28;20096;-62
2022/08/09 11:41:02;;;;;;;0.20;0.20;;;27.10;54.70;;;;;;5054588;28;20504;-62
2022/08/09 11:43:28;;;;;;;0.98;0.40;;;27.20;54.00;;;;;;5035131;28;20030;-62
2022/08/09 11:45:59;;;;;;;1.58;0.65;;;27.30;52.70;;;;;;5043997;28;20035;-62
2022/08/09 11:48:28;;;;;;;0.55;0.20;;;27.50;53.00;;;;;;5066916;28;20039;-62
2022/08/09 11:50:57;;;;;;;1.73;0.30;;;27.70;53.20;;;;;;5024512;28;20037;-62
2022/08/09 11:53:33;;;;;;;1.55;0.40;;;27.90;53.00;;;;;;5041166;28;20049;-62
2022/08/09 11:56:14;;;;;;;0.65;0.30;;;28.10;51.80;;;;;;5036888;28;20501;-62
2022/08/09 11:58:56;;;;;;;1.83;0.30;;;28.20;51.00;;;;;;5058345;28;20099;-62
2022/08/09 12:01:49;;;;;;;0.90;0.25;;;28.30;50.60;;;;;;5045020;28;20063;-62
2022/08/09 12:04:15;;;;;;;0.50;0.30;;;28.50;49.70;;;;;;5026732;28;20067;-62
2022/08/09 12:07:03;;;;;;;1.08;0.25;;;28.60;49.50;;;;;;5043209;28;20037;-62
2022/08/09 12:09:33;;;;;;;0.68;0.40;;;28.70;49.30;;;;;;5048684;28;20044;-62
2022/08/09 12:12:04;;;;;;;1.42;0.30;;;28.80;49.70;;;;;;5039177;28;20465;-63
2022/08/09 12:14:32;;;;;;;0.98;0.32;;;29.00;49.50;;;;;;5045486;28;20063;-62
2022/08/09 12:16:58;;;;;;;1.40;0.20;;;29.20;49.30;;;;;;5039721;28;20036;-63
2022/08/09 12:19:28;;;;;;;0.82;0.20;;;29.40;47.60;;;;;;5041464;28;20051;-62
2022/08/09 12:22:03;;;;;;;1.60;0.30;;;29.60;47.60;;;;;;5041390;28;21093;-63
2022/08/09 12:24:29;;;;;;;0.60;0.30;;;29.70;47.00;;;;;;5039326;28;20049;-63
2022/08/09 12:26:55;;;;;;;0.60;0.25;;;29.80;47.00;;;;;;5051338;28;20079;-62
2022/08/09 12:29:24;;;;;;;1.15;0.40;;;29.90;47.40;;;;;;5057524;28;20032;-62
2022/08/09 12:32:07;;;;;;;0.65;0.25;;;30.10;47.10;;;;;;5031095;28;20480;-62
2022/08/09 12:34:35;;;;;;;1.10;0.30;;;30.20;46.80;;;;;;5040784;28;20028;-62
2022/08/09 12:37:02;;;;;;;0.70;0.20;;;30.40;46.30;;;;;;5049960;28;20021;-62
2022/08/09 12:39:27;;;;;;;0.98;0.40;;;30.60;46.50;;;;;;5050373;28;20040;-63
2022/08/09 12:41:53;;;;;;;1.42;0.30;;;30.70;45.90;;;;;;5046954;28;20021;-62
2022/08/09 12:44:19;;;;;;;0.82;0.28;;;30.90;45.70;;;;;;5050050;28;20029;-62
2022/08/09 12:46:46;;;;;;;0.95;0.40;;;31.00;44.80;;;;;;5047015;28;20492;-62
2022/08/09 12:49:13;;;;;;;0.57;0.30;;;31.20;44.80;;;;;;5050122;28;20503;-62
2022/08/09 12:51:39;;;;;;;0.95;0.30;;;31.20;44.50;;;;;;5050676;28;20464;-62
2022/08/09 12:54:07;;;;;;;0.47;0.30;;;31.30;44.60;;;;;;5064977;28;20504;-62
2022/08/09 12:56:45;;;;;;;0.75;0.45;;;31.40;44.80;;;;;;5046998;28;20100;-62
2022/08/09 12:59:13;;;;;;;0.67;0.30;;;31.50;44.30;;;;;;5042339;28;20091;-62
2022/08/09 13:01:41;;;;;;;0.50;0.30;;;31.50;44.10;;;;;;5052323;28;20068;-62
2022/08/09 13:04:13;;;;;;;0.88;0.30;;;31.70;44.60;;;;;;5041838;28;20107;-63